sensor_id;sensor_type;location;lat;lon;timestamp;P1;durP1;ratioP1;P2;durP2;ratioP2
39930;SDS011;26635;-35.248;149.138;2023-09-30T00:01:31;2.47;;;0.80;;
39930;SDS011;26635;-35.248;149.138;2023-09-30T00:04:04;2.22;;;0.90;;
39930;SDS011;26635;-35.248;149.138;2023-09-30T00:06:36;1.13;;;0.40;;
39930;SDS011;26635;-35.248;149.138;2023-09-30T00:09:08;3.10;;;0.60;;
39930;SDS011;26635;-35.248;149.138;2023-09-30T00:11:41;1.52;;;0.57;;
39930;SDS011;26635;-35.248;149.138;2023-09-30T00:14:17;2.20;;;0.80;;
39930;SDS011;26635;-35.248;149.138;2023-09-30T00:16:47;1.35;;;0.60;;
39930;SDS011;26635;-35.248;149.138;2023-09-30T00:19:30;1.35;;;0.70;;
39930;SDS011;26635;-35.248;149.138;2023-09-30T00:22:03;2.33;;;0.73;;
39930;SDS011;26635;-35.248;149.138;2023-09-30T00:24:33;1.23;;;0.70;;
39930;SDS011;26635;-35.248;149.138;2023-09-30T00:27:04;1.45;;;0.75;;
39930;SDS011;26635;-35.248;149.138;2023-09-30T00:29:36;1.27;;;0.98;;
39930;SDS011;26635;-35.248;149.138;2023-09-30T00:32:08;1.40;;;0.47;;
39930;SDS011;26635;-35.248;149.138;2023-09-30T00:34:41;0.95;;;0.65;;
39930;SDS011;26635;-35.248;149.138;2023-09-30T00:37:13;1.52;;;0.50;;
39930;SDS011;26635;-35.248;149.138;2023-09-30T00:39:43;2.72;;;0.55;;
39930;SDS011;26635;-35.248;149.138;2023-09-30T00:42:14;1.40;;;0.60;;
39930;SDS011;26635;-35.248;149.138;2023-09-30T00:44:45;1.40;;;0.68;;
39930;SDS011;26635;-35.248;149.138;2023-09-30T00:47:17;1.33;;;0.40;;
39930;SDS011;26635;-35.248;149.138;2023-09-30T00:49:50;0.80;;;0.65;;
39930;SDS011;26635;-35.248;149.138;2023-09-30T00:52:24;1.00;;;0.57;;
39930;SDS011;26635;-35.248;149.138;2023-09-30T00:54:55;1.98;;;0.70;;
39930;SDS011;26635;-35.248;149.138;2023-09-30T00:57:28;1.10;;;0.55;;
39930;SDS011;26635;-35.248;149.138;2023-09-30T01:00:00;1.80;;;0.50;;
39930;SDS011;26635;-35.248;149.138;2023-09-30T01:02:32;0.88;;;0.52;;
39930;SDS011;26635;-35.248;149.138;2023-09-30T01:05:04;1.60;;;0.50;;
39930;SDS011;26635;-35.248;149.138;2023-09-30T01:07:36;2.60;;;0.52;;
39930;SDS011;26635;-35.248;149.138;2023-09-30T01:10:07;0.80;;;0.50;;
39930;SDS011;26635;-35.248;149.138;2023-09-30T01:12:38;1.10;;;0.57;;
39930;SDS011;26635;-35.248;149.138;2023-09-30T01:15:09;0.73;;;0.50;;
39930;SDS011;26635;-35.248;149.138;2023-09-30T01:17:40;2.58;;;0.60;;
39930;SDS011;26635;-35.248;149.138;2023-09-30T01:20:11;1.30;;;0.63;;
39930;SDS011;26635;-35.248;149.138;2023-09-30T01:22:45;1.90;;;0.57;;
39930;SDS011;26635;-35.248;149.138;2023-09-30T01:25:16;2.35;;;0.65;;
39930;SDS011;26635;-35.248;149.138;2023-09-30T01:27:47;3.63;;;0.70;;
39930;SDS011;26635;-35.248;149.138;2023-09-30T01:30:20;2.28;;;0.57;;
39930;SDS011;26635;-35.248;149.138;2023-09-30T01:32:54;1.88;;;0.70;;
39930;SDS011;26635;-35.248;149.138;2023-09-30T01:35:24;0.98;;;0.60;;
39930;SDS011;26635;-35.248;149.138;2023-09-30T01:37:56;1.80;;;0.88;;
39930;SDS011;26635;-35.248;149.138;2023-09-30T01:40:27;3.45;;;0.80;;
39930;SDS011;26635;-35.248;149.138;2023-09-30T01:42:58;2.35;;;0.80;;
39930;SDS011;26635;-35.248;149.138;2023-09-30T01:45:29;2.03;;;1.08;;
39930;SDS011;26635;-35.248;149.138;2023-09-30T01:48:01;1.70;;;0.75;;
39930;SDS011;26635;-35.248;149.138;2023-09-30T01:50:32;2.45;;;0.90;;
39930;SDS011;26635;-35.248;149.138;2023-09-30T01:53:03;1.15;;;0.65;;
39930;SDS011;26635;-35.248;149.138;2023-09-30T01:55:39;1.60;;;0.80;;
39930;SDS011;26635;-35.248;149.138;2023-09-30T01:58:11;1.60;;;0.60;;
39930;SDS011;26635;-35.248;149.138;2023-09-30T02:00:42;0.85;;;0.70;;
39930;SDS011;26635;-35.248;149.138;2023-09-30T02:03:13;3.60;;;0.85;;
39930;SDS011;26635;-35.248;149.138;2023-09-30T02:05:44;1.15;;;0.70;;
39930;SDS011;26635;-35.248;149.138;2023-09-30T02:08:15;1.73;;;0.70;;
39930;SDS011;26635;-35.248;149.138;2023-09-30T02:10:47;2.42;;;0.70;;
39930;SDS011;26635;-35.248;149.138;2023-09-30T02:13:18;1.90;;;0.60;;
39930;SDS011;26635;-35.248;149.138;2023-09-30T02:15:49;1.23;;;0.85;;
39930;SDS011;26635;-35.248;149.138;2023-09-30T02:18:20;1.00;;;0.60;;
39930;SDS011;26635;-35.248;149.138;2023-09-30T02:20:54;0.82;;;0.60;;
39930;SDS011;26635;-35.248;149.138;2023-09-30T02:23:25;1.73;;;0.80;;
39930;SDS011;26635;-35.248;149.138;2023-09-30T02:25:55;0.93;;;0.80;;
39930;SDS011;26635;-35.248;149.138;2023-09-30T02:28:26;1.02;;;0.88;;
39930;SDS011;26635;-35.248;149.138;2023-09-30T02:30:58;1.75;;;0.80;;
39930;SDS011;26635;-35.248;149.138;2023-09-30T02:33:29;0.70;;;0.50;;
39930;SDS011;26635;-35.248;149.138;2023-09-30T02:36:00;1.75;;;0.80;;
39930;SDS011;26635;-35.248;149.138;2023-09-30T02:38:35;1.40;;;0.75;;
39930;SDS011;26635;-35.248;149.138;2023-09-30T02:41:26;1.17;;;0.60;;
39930;SDS011;26635;-35.248;149.138;2023-09-30T02:44:14;2.25;;;0.80;;
39930;SDS011;26635;-35.248;149.138;2023-09-30T02:46:45;1.40;;;0.60;;
39930;SDS011;26635;-35.248;149.138;2023-09-30T02:49:16;0.93;;;0.60;;
39930;SDS011;26635;-35.248;149.138;2023-09-30T02:51:48;1.75;;;0.82;;
39930;SDS011;26635;-35.248;149.138;2023-09-30T02:54:19;1.27;;;0.80;;
39930;SDS011;26635;-35.248;149.138;2023-09-30T02:56:49;2.05;;;1.15;;
39930;SDS011;26635;-35.248;149.138;2023-09-30T02:59:20;1.92;;;0.70;;
39930;SDS011;26635;-35.248;149.138;2023-09-30T03:01:52;2.72;;;0.75;;
39930;SDS011;26635;-35.248;149.138;2023-09-30T03:04:23;1.65;;;0.80;;
39930;SDS011;26635;-35.248;149.138;2023-09-30T03:06:57;0.90;;;0.60;;
39930;SDS011;26635;-35.248;149.138;2023-09-30T03:09:28;1.30;;;0.80;;
39930;SDS011;26635;-35.248;149.138;2023-09-30T03:11:59;1.10;;;0.55;;
39930;SDS011;26635;-35.248;149.138;2023-09-30T03:14:31;1.67;;;0.90;;
39930;SDS011;26635;-35.248;149.138;2023-09-30T03:17:03;2.15;;;0.90;;
39930;SDS011;26635;-35.248;149.138;2023-09-30T03:19:34;2.55;;;0.88;;
39930;SDS011;26635;-35.248;149.138;2023-09-30T03:22:06;0.80;;;0.50;;
39930;SDS011;26635;-35.248;149.138;2023-09-30T03:24:40;1.35;;;0.90;;
39930;SDS011;26635;-35.248;149.138;2023-09-30T03:27:11;1.23;;;0.55;;
39930;SDS011;26635;-35.248;149.138;2023-09-30T03:29:43;1.85;;;0.80;;
39930;SDS011;26635;-35.248;149.138;2023-09-30T03:32:14;1.48;;;0.70;;
39930;SDS011;26635;-35.248;149.138;2023-09-30T03:34:46;2.13;;;0.70;;
39930;SDS011;26635;-35.248;149.138;2023-09-30T03:37:18;2.67;;;0.90;;
39930;SDS011;26635;-35.248;149.138;2023-09-30T03:39:49;1.00;;;0.70;;
39930;SDS011;26635;-35.248;149.138;2023-09-30T03:42:20;2.40;;;0.85;;
39930;SDS011;26635;-35.248;149.138;2023-09-30T03:44:51;1.05;;;0.60;;
39930;SDS011;26635;-35.248;149.138;2023-09-30T03:47:23;2.30;;;1.48;;
39930;SDS011;26635;-35.248;149.138;2023-09-30T03:49:53;3.63;;;1.77;;
39930;SDS011;26635;-35.248;149.138;2023-09-30T03:52:24;1.35;;;0.85;;
39930;SDS011;26635;-35.248;149.138;2023-09-30T03:54:59;1.73;;;0.90;;
39930;SDS011;26635;-35.248;149.138;2023-09-30T03:57:34;2.17;;;0.65;;
39930;SDS011;26635;-35.248;149.138;2023-09-30T04:00:06;1.30;;;0.70;;
39930;SDS011;26635;-35.248;149.138;2023-09-30T04:02:40;1.15;;;0.80;;
39930;SDS011;26635;-35.248;149.138;2023-09-30T04:05:11;2.20;;;0.85;;
39930;SDS011;26635;-35.248;149.138;2023-09-30T04:07:44;1.25;;;0.60;;
39930;SDS011;26635;-35.248;149.138;2023-09-30T04:10:15;2.22;;;1.05;;
39930;SDS011;26635;-35.248;149.138;2023-09-30T04:12:48;2.65;;;1.05;;
39930;SDS011;26635;-35.248;149.138;2023-09-30T04:15:18;2.20;;;0.77;;
39930;SDS011;26635;-35.248;149.138;2023-09-30T04:17:49;2.05;;;1.50;;
39930;SDS011;26635;-35.248;149.138;2023-09-30T04:20:23;1.90;;;0.73;;
39930;SDS011;26635;-35.248;149.138;2023-09-30T04:22:56;1.27;;;0.75;;
39930;SDS011;26635;-35.248;149.138;2023-09-30T04:25:27;4.15;;;1.17;;
39930;SDS011;26635;-35.248;149.138;2023-09-30T04:27:58;1.02;;;0.73;;
39930;SDS011;26635;-35.248;149.138;2023-09-30T04:30:31;1.92;;;0.82;;
39930;SDS011;26635;-35.248;149.138;2023-09-30T04:33:02;2.53;;;0.95;;
39930;SDS011;26635;-35.248;149.138;2023-09-30T04:35:36;1.08;;;0.77;;
39930;SDS011;26635;-35.248;149.138;2023-09-30T04:38:08;2.25;;;1.08;;
39930;SDS011;26635;-35.248;149.138;2023-09-30T04:40:39;2.10;;;1.17;;
39930;SDS011;26635;-35.248;149.138;2023-09-30T04:43:12;1.90;;;0.98;;
39930;SDS011;26635;-35.248;149.138;2023-09-30T04:45:43;1.52;;;0.70;;
39930;SDS011;26635;-35.248;149.138;2023-09-30T04:48:15;2.03;;;1.02;;
39930;SDS011;26635;-35.248;149.138;2023-09-30T04:50:46;1.98;;;0.90;;
39930;SDS011;26635;-35.248;149.138;2023-09-30T04:53:17;0.90;;;0.60;;
39930;SDS011;26635;-35.248;149.138;2023-09-30T04:55:48;2.33;;;0.70;;
39930;SDS011;26635;-35.248;149.138;2023-09-30T04:58:19;1.65;;;1.00;;
39930;SDS011;26635;-35.248;149.138;2023-09-30T05:00:52;1.63;;;0.65;;
39930;SDS011;26635;-35.248;149.138;2023-09-30T05:03:23;2.75;;;0.77;;
39930;SDS011;26635;-35.248;149.138;2023-09-30T05:05:53;3.45;;;0.93;;
39930;SDS011;26635;-35.248;149.138;2023-09-30T05:08:27;1.42;;;0.88;;
39930;SDS011;26635;-35.248;149.138;2023-09-30T05:10:58;1.08;;;0.60;;
39930;SDS011;26635;-35.248;149.138;2023-09-30T05:13:29;1.25;;;0.80;;
39930;SDS011;26635;-35.248;149.138;2023-09-30T05:16:03;1.30;;;0.52;;
39930;SDS011;26635;-35.248;149.138;2023-09-30T05:18:34;2.95;;;1.15;;
39930;SDS011;26635;-35.248;149.138;2023-09-30T05:21:06;0.98;;;0.73;;
39930;SDS011;26635;-35.248;149.138;2023-09-30T05:23:38;2.00;;;1.10;;
39930;SDS011;26635;-35.248;149.138;2023-09-30T05:26:09;2.35;;;1.20;;
39930;SDS011;26635;-35.248;149.138;2023-09-30T05:28:40;2.78;;;0.70;;
39930;SDS011;26635;-35.248;149.138;2023-09-30T05:31:11;2.05;;;0.98;;
39930;SDS011;26635;-35.248;149.138;2023-09-30T05:33:42;2.63;;;0.95;;
39930;SDS011;26635;-35.248;149.138;2023-09-30T05:36:13;1.85;;;0.82;;
39930;SDS011;26635;-35.248;149.138;2023-09-30T05:38:45;2.47;;;1.00;;
39930;SDS011;26635;-35.248;149.138;2023-09-30T05:41:19;2.72;;;0.95;;
39930;SDS011;26635;-35.248;149.138;2023-09-30T05:43:49;1.85;;;0.98;;
39930;SDS011;26635;-35.248;149.138;2023-09-30T05:46:23;2.40;;;0.85;;
39930;SDS011;26635;-35.248;149.138;2023-09-30T05:48:54;2.60;;;1.17;;
39930;SDS011;26635;-35.248;149.138;2023-09-30T05:51:25;2.58;;;1.20;;
39930;SDS011;26635;-35.248;149.138;2023-09-30T05:53:56;1.77;;;1.27;;
39930;SDS011;26635;-35.248;149.138;2023-09-30T05:56:27;3.67;;;0.90;;
39930;SDS011;26635;-35.248;149.138;2023-09-30T05:58:58;1.70;;;1.00;;
39930;SDS011;26635;-35.248;149.138;2023-09-30T06:01:29;2.30;;;1.10;;
39930;SDS011;26635;-35.248;149.138;2023-09-30T06:04:01;2.05;;;1.20;;
39930;SDS011;26635;-35.248;149.138;2023-09-30T06:06:37;1.65;;;0.85;;
39930;SDS011;26635;-35.248;149.138;2023-09-30T06:09:09;1.40;;;0.80;;
39930;SDS011;26635;-35.248;149.138;2023-09-30T06:11:40;1.85;;;1.05;;
39930;SDS011;26635;-35.248;149.138;2023-09-30T06:14:11;2.17;;;1.00;;
39930;SDS011;26635;-35.248;149.138;2023-09-30T06:16:43;2.50;;;1.05;;
39930;SDS011;26635;-35.248;149.138;2023-09-30T06:19:15;5.20;;;1.40;;
39930;SDS011;26635;-35.248;149.138;2023-09-30T06:21:46;2.25;;;1.00;;
39930;SDS011;26635;-35.248;149.138;2023-09-30T06:24:19;1.67;;;0.90;;
39930;SDS011;26635;-35.248;149.138;2023-09-30T06:26:51;1.65;;;0.93;;
39930;SDS011;26635;-35.248;149.138;2023-09-30T06:29:28;2.75;;;1.00;;
39930;SDS011;26635;-35.248;149.138;2023-09-30T06:31:59;2.45;;;1.10;;
39930;SDS011;26635;-35.248;149.138;2023-09-30T06:34:30;2.05;;;1.00;;
39930;SDS011;26635;-35.248;149.138;2023-09-30T06:37:03;1.30;;;0.80;;
39930;SDS011;26635;-35.248;149.138;2023-09-30T06:39:34;1.55;;;1.15;;
39930;SDS011;26635;-35.248;149.138;2023-09-30T06:42:06;1.48;;;0.90;;
39930;SDS011;26635;-35.248;149.138;2023-09-30T06:44:37;2.53;;;1.10;;
39930;SDS011;26635;-35.248;149.138;2023-09-30T06:47:07;2.38;;;1.23;;
39930;SDS011;26635;-35.248;149.138;2023-09-30T06:49:41;2.92;;;1.10;;
39930;SDS011;26635;-35.248;149.138;2023-09-30T06:52:12;2.42;;;1.20;;
39930;SDS011;26635;-35.248;149.138;2023-09-30T06:54:43;1.95;;;0.93;;
39930;SDS011;26635;-35.248;149.138;2023-09-30T06:57:14;1.95;;;0.93;;
39930;SDS011;26635;-35.248;149.138;2023-09-30T06:59:45;1.13;;;0.82;;
39930;SDS011;26635;-35.248;149.138;2023-09-30T07:02:16;2.40;;;0.90;;
39930;SDS011;26635;-35.248;149.138;2023-09-30T07:04:47;1.50;;;0.93;;
39930;SDS011;26635;-35.248;149.138;2023-09-30T07:07:17;2.30;;;1.17;;
39930;SDS011;26635;-35.248;149.138;2023-09-30T07:09:49;3.58;;;0.93;;
39930;SDS011;26635;-35.248;149.138;2023-09-30T07:12:20;2.42;;;1.10;;
39930;SDS011;26635;-35.248;149.138;2023-09-30T07:14:50;1.20;;;0.80;;
39930;SDS011;26635;-35.248;149.138;2023-09-30T07:17:31;2.95;;;1.08;;
39930;SDS011;26635;-35.248;149.138;2023-09-30T07:20:03;1.55;;;0.80;;
39930;SDS011;26635;-35.248;149.138;2023-09-30T07:22:34;1.90;;;1.05;;
39930;SDS011;26635;-35.248;149.138;2023-09-30T07:25:08;1.67;;;0.80;;
39930;SDS011;26635;-35.248;149.138;2023-09-30T07:27:39;1.50;;;0.80;;
39930;SDS011;26635;-35.248;149.138;2023-09-30T07:30:11;3.08;;;0.90;;
39930;SDS011;26635;-35.248;149.138;2023-09-30T07:32:43;2.63;;;1.23;;
39930;SDS011;26635;-35.248;149.138;2023-09-30T07:35:16;1.75;;;0.80;;
39930;SDS011;26635;-35.248;149.138;2023-09-30T07:37:47;1.40;;;0.80;;
39930;SDS011;26635;-35.248;149.138;2023-09-30T07:40:21;1.48;;;0.98;;
39930;SDS011;26635;-35.248;149.138;2023-09-30T07:42:51;2.00;;;1.10;;
39930;SDS011;26635;-35.248;149.138;2023-09-30T07:45:22;1.38;;;0.82;;
39930;SDS011;26635;-35.248;149.138;2023-09-30T07:47:53;2.83;;;0.95;;
39930;SDS011;26635;-35.248;149.138;2023-09-30T07:50:25;1.58;;;1.00;;
39930;SDS011;26635;-35.248;149.138;2023-09-30T07:52:56;2.47;;;1.10;;
39930;SDS011;26635;-35.248;149.138;2023-09-30T07:55:27;1.70;;;0.90;;
39930;SDS011;26635;-35.248;149.138;2023-09-30T07:57:58;1.75;;;0.75;;
39930;SDS011;26635;-35.248;149.138;2023-09-30T08:00:30;1.65;;;1.05;;
39930;SDS011;26635;-35.248;149.138;2023-09-30T08:03:02;2.72;;;1.05;;
39930;SDS011;26635;-35.248;149.138;2023-09-30T08:05:37;2.10;;;0.95;;
39930;SDS011;26635;-35.248;149.138;2023-09-30T08:08:08;2.03;;;1.30;;
39930;SDS011;26635;-35.248;149.138;2023-09-30T08:10:39;3.20;;;1.38;;
39930;SDS011;26635;-35.248;149.138;2023-09-30T08:13:12;3.45;;;1.70;;
39930;SDS011;26635;-35.248;149.138;2023-09-30T08:15:43;3.00;;;1.65;;
39930;SDS011;26635;-35.248;149.138;2023-09-30T08:18:14;4.18;;;1.65;;
39930;SDS011;26635;-35.248;149.138;2023-09-30T08:20:46;2.63;;;1.23;;
39930;SDS011;26635;-35.248;149.138;2023-09-30T08:23:18;2.40;;;1.20;;
39930;SDS011;26635;-35.248;149.138;2023-09-30T08:25:50;2.95;;;1.40;;
39930;SDS011;26635;-35.248;149.138;2023-09-30T08:28:22;4.50;;;1.13;;
39930;SDS011;26635;-35.248;149.138;2023-09-30T08:30:54;2.35;;;1.27;;
39930;SDS011;26635;-35.248;149.138;2023-09-30T08:33:29;2.85;;;1.10;;
39930;SDS011;26635;-35.248;149.138;2023-09-30T08:36:03;1.83;;;0.95;;
39930;SDS011;26635;-35.248;149.138;2023-09-30T08:38:39;3.08;;;1.17;;
39930;SDS011;26635;-35.248;149.138;2023-09-30T08:41:11;4.05;;;1.77;;
39930;SDS011;26635;-35.248;149.138;2023-09-30T08:44:03;3.40;;;2.00;;
39930;SDS011;26635;-35.248;149.138;2023-09-30T08:46:34;4.85;;;1.70;;
39930;SDS011;26635;-35.248;149.138;2023-09-30T08:49:05;5.30;;;2.08;;
39930;SDS011;26635;-35.248;149.138;2023-09-30T08:51:39;3.35;;;2.38;;
39930;SDS011;26635;-35.248;149.138;2023-09-30T08:54:12;3.22;;;1.83;;
39930;SDS011;26635;-35.248;149.138;2023-09-30T08:56:44;4.95;;;2.55;;
39930;SDS011;26635;-35.248;149.138;2023-09-30T08:59:20;8.98;;;5.45;;
39930;SDS011;26635;-35.248;149.138;2023-09-30T09:01:52;5.82;;;3.90;;
39930;SDS011;26635;-35.248;149.138;2023-09-30T09:04:22;5.60;;;2.63;;
39930;SDS011;26635;-35.248;149.138;2023-09-30T09:06:55;6.45;;;3.40;;
39930;SDS011;26635;-35.248;149.138;2023-09-30T09:09:26;3.63;;;2.70;;
39930;SDS011;26635;-35.248;149.138;2023-09-30T09:11:57;6.25;;;3.08;;
39930;SDS011;26635;-35.248;149.138;2023-09-30T09:14:40;7.60;;;3.72;;
39930;SDS011;26635;-35.248;149.138;2023-09-30T09:17:19;4.75;;;3.33;;
39930;SDS011;26635;-35.248;149.138;2023-09-30T09:20:01;7.80;;;3.80;;
39930;SDS011;26635;-35.248;149.138;2023-09-30T09:22:41;4.05;;;2.85;;
39930;SDS011;26635;-35.248;149.138;2023-09-30T09:25:13;6.07;;;3.65;;
39930;SDS011;26635;-35.248;149.138;2023-09-30T09:27:44;8.10;;;3.38;;
39930;SDS011;26635;-35.248;149.138;2023-09-30T09:32:53;6.38;;;3.63;;
39930;SDS011;26635;-35.248;149.138;2023-09-30T09:35:24;7.97;;;3.40;;
39930;SDS011;26635;-35.248;149.138;2023-09-30T09:40:35;9.75;;;3.78;;
39930;SDS011;26635;-35.248;149.138;2023-09-30T09:43:10;10.75;;;4.40;;
39930;SDS011;26635;-35.248;149.138;2023-09-30T09:45:41;6.65;;;4.05;;
39930;SDS011;26635;-35.248;149.138;2023-09-30T09:48:12;6.18;;;3.20;;
39930;SDS011;26635;-35.248;149.138;2023-09-30T09:50:44;7.20;;;3.72;;
39930;SDS011;26635;-35.248;149.138;2023-09-30T09:53:17;6.57;;;3.75;;
39930;SDS011;26635;-35.248;149.138;2023-09-30T09:55:50;4.93;;;3.45;;
39930;SDS011;26635;-35.248;149.138;2023-09-30T09:58:22;6.63;;;3.50;;
39930;SDS011;26635;-35.248;149.138;2023-09-30T10:00:54;5.45;;;3.33;;
39930;SDS011;26635;-35.248;149.138;2023-09-30T10:03:27;4.95;;;3.17;;
39930;SDS011;26635;-35.248;149.138;2023-09-30T10:06:01;4.18;;;2.75;;
39930;SDS011;26635;-35.248;149.138;2023-09-30T10:08:35;8.48;;;4.13;;
39930;SDS011;26635;-35.248;149.138;2023-09-30T10:11:19;7.93;;;3.63;;
39930;SDS011;26635;-35.248;149.138;2023-09-30T10:13:57;9.07;;;2.95;;
39930;SDS011;26635;-35.248;149.138;2023-09-30T10:19:21;4.50;;;2.13;;
39930;SDS011;26635;-35.248;149.138;2023-09-30T10:24:57;7.43;;;2.25;;
39930;SDS011;26635;-35.248;149.138;2023-09-30T10:27:30;3.13;;;1.50;;
39930;SDS011;26635;-35.248;149.138;2023-09-30T10:30:06;2.97;;;1.20;;
39930;SDS011;26635;-35.248;149.138;2023-09-30T10:41:48;4.22;;;1.40;;
39930;SDS011;26635;-35.248;149.138;2023-09-30T10:44:32;2.78;;;1.35;;
39930;SDS011;26635;-35.248;149.138;2023-09-30T10:53:43;4.38;;;1.80;;
39930;SDS011;26635;-35.248;149.138;2023-09-30T10:56:37;3.95;;;2.00;;
39930;SDS011;26635;-35.248;149.138;2023-09-30T10:59:29;4.75;;;2.55;;
39930;SDS011;26635;-35.248;149.138;2023-09-30T11:02:21;5.50;;;3.17;;
39930;SDS011;26635;-35.248;149.138;2023-09-30T11:05:14;5.38;;;3.22;;
39930;SDS011;26635;-35.248;149.138;2023-09-30T11:08:05;7.93;;;3.85;;
39930;SDS011;26635;-35.248;149.138;2023-09-30T11:10:59;6.20;;;3.88;;
39930;SDS011;26635;-35.248;149.138;2023-09-30T11:13:52;7.05;;;4.00;;
39930;SDS011;26635;-35.248;149.138;2023-09-30T11:16:44;7.15;;;3.80;;
39930;SDS011;26635;-35.248;149.138;2023-09-30T11:19:37;6.55;;;4.45;;
39930;SDS011;26635;-35.248;149.138;2023-09-30T11:22:38;7.15;;;3.97;;
39930;SDS011;26635;-35.248;149.138;2023-09-30T11:25:29;8.90;;;5.07;;
39930;SDS011;26635;-35.248;149.138;2023-09-30T11:28:35;7.72;;;4.78;;
39930;SDS011;26635;-35.248;149.138;2023-09-30T11:31:30;10.00;;;5.57;;
39930;SDS011;26635;-35.248;149.138;2023-09-30T11:34:36;12.93;;;5.80;;
39930;SDS011;26635;-35.248;149.138;2023-09-30T11:37:30;9.95;;;5.57;;
39930;SDS011;26635;-35.248;149.138;2023-09-30T11:40:25;10.20;;;5.03;;
39930;SDS011;26635;-35.248;149.138;2023-09-30T11:43:16;8.93;;;4.97;;
39930;SDS011;26635;-35.248;149.138;2023-09-30T11:46:08;12.68;;;5.88;;
39930;SDS011;26635;-35.248;149.138;2023-09-30T11:49:01;9.88;;;4.85;;
39930;SDS011;26635;-35.248;149.138;2023-09-30T11:51:58;6.95;;;4.18;;
39930;SDS011;26635;-35.248;149.138;2023-09-30T11:54:53;10.02;;;4.60;;
39930;SDS011;26635;-35.248;149.138;2023-09-30T11:57:45;6.93;;;4.40;;
39930;SDS011;26635;-35.248;149.138;2023-09-30T12:00:40;8.48;;;5.68;;
39930;SDS011;26635;-35.248;149.138;2023-09-30T12:03:32;7.43;;;4.60;;
39930;SDS011;26635;-35.248;149.138;2023-09-30T12:06:30;9.60;;;4.13;;
39930;SDS011;26635;-35.248;149.138;2023-09-30T12:09:23;7.40;;;4.22;;
39930;SDS011;26635;-35.248;149.138;2023-09-30T12:12:19;8.10;;;3.92;;
39930;SDS011;26635;-35.248;149.138;2023-09-30T12:15:10;8.88;;;4.95;;
39930;SDS011;26635;-35.248;149.138;2023-09-30T12:18:01;8.38;;;4.57;;
39930;SDS011;26635;-35.248;149.138;2023-09-30T12:20:54;8.80;;;4.35;;
39930;SDS011;26635;-35.248;149.138;2023-09-30T12:23:45;8.13;;;4.50;;
39930;SDS011;26635;-35.248;149.138;2023-09-30T12:26:39;8.27;;;5.10;;
39930;SDS011;26635;-35.248;149.138;2023-09-30T12:29:30;10.82;;;4.88;;
39930;SDS011;26635;-35.248;149.138;2023-09-30T12:32:25;7.63;;;4.70;;
39930;SDS011;26635;-35.248;149.138;2023-09-30T12:35:16;10.38;;;4.55;;
39930;SDS011;26635;-35.248;149.138;2023-09-30T12:38:07;6.85;;;4.47;;
39930;SDS011;26635;-35.248;149.138;2023-09-30T12:40:58;7.38;;;3.80;;
39930;SDS011;26635;-35.248;149.138;2023-09-30T12:43:50;8.02;;;4.22;;
39930;SDS011;26635;-35.248;149.138;2023-09-30T12:46:42;8.52;;;4.75;;
39930;SDS011;26635;-35.248;149.138;2023-09-30T12:49:35;8.98;;;4.07;;
39930;SDS011;26635;-35.248;149.138;2023-09-30T12:52:26;7.80;;;4.43;;
39930;SDS011;26635;-35.248;149.138;2023-09-30T12:55:17;8.65;;;3.97;;
39930;SDS011;26635;-35.248;149.138;2023-09-30T12:58:08;9.65;;;4.18;;
39930;SDS011;26635;-35.248;149.138;2023-09-30T13:01:00;6.53;;;3.80;;
39930;SDS011;26635;-35.248;149.138;2023-09-30T13:04:08;6.57;;;3.28;;
39930;SDS011;26635;-35.248;149.138;2023-09-30T13:07:01;6.32;;;3.50;;
39930;SDS011;26635;-35.248;149.138;2023-09-30T13:09:52;5.13;;;2.85;;
39930;SDS011;26635;-35.248;149.138;2023-09-30T13:12:46;5.68;;;3.10;;
39930;SDS011;26635;-35.248;149.138;2023-09-30T13:15:42;8.68;;;4.50;;
39930;SDS011;26635;-35.248;149.138;2023-09-30T13:18:34;8.38;;;3.15;;
39930;SDS011;26635;-35.248;149.138;2023-09-30T13:21:25;7.38;;;4.03;;
39930;SDS011;26635;-35.248;149.138;2023-09-30T13:24:16;6.18;;;3.35;;
39930;SDS011;26635;-35.248;149.138;2023-09-30T13:27:08;5.32;;;3.10;;
39930;SDS011;26635;-35.248;149.138;2023-09-30T13:29:59;5.82;;;3.53;;
39930;SDS011;26635;-35.248;149.138;2023-09-30T13:32:50;6.75;;;4.18;;
39930;SDS011;26635;-35.248;149.138;2023-09-30T13:35:44;5.43;;;3.42;;
39930;SDS011;26635;-35.248;149.138;2023-09-30T13:38:36;7.25;;;3.58;;
39930;SDS011;26635;-35.248;149.138;2023-09-30T13:41:28;4.85;;;3.70;;
39930;SDS011;26635;-35.248;149.138;2023-09-30T13:44:19;5.80;;;2.90;;
39930;SDS011;26635;-35.248;149.138;2023-09-30T13:47:10;4.75;;;3.10;;
39930;SDS011;26635;-35.248;149.138;2023-09-30T13:50:01;6.05;;;3.40;;
39930;SDS011;26635;-35.248;149.138;2023-09-30T13:52:56;8.10;;;3.90;;
39930;SDS011;26635;-35.248;149.138;2023-09-30T13:55:52;6.35;;;3.92;;
39930;SDS011;26635;-35.248;149.138;2023-09-30T13:58:43;5.88;;;4.10;;
39930;SDS011;26635;-35.248;149.138;2023-09-30T14:01:36;6.18;;;3.72;;
39930;SDS011;26635;-35.248;149.138;2023-09-30T14:04:30;7.80;;;4.22;;
39930;SDS011;26635;-35.248;149.138;2023-09-30T14:07:22;7.40;;;4.00;;
39930;SDS011;26635;-35.248;149.138;2023-09-30T14:10:14;8.52;;;4.03;;
39930;SDS011;26635;-35.248;149.138;2023-09-30T14:13:05;8.88;;;4.50;;
39930;SDS011;26635;-35.248;149.138;2023-09-30T14:15:59;8.45;;;4.40;;
39930;SDS011;26635;-35.248;149.138;2023-09-30T14:18:51;6.60;;;3.45;;
39930;SDS011;26635;-35.248;149.138;2023-09-30T14:21:43;6.65;;;3.88;;
39930;SDS011;26635;-35.248;149.138;2023-09-30T14:24:35;6.22;;;3.60;;
39930;SDS011;26635;-35.248;149.138;2023-09-30T14:27:27;7.85;;;3.70;;
39930;SDS011;26635;-35.248;149.138;2023-09-30T14:30:18;7.38;;;3.28;;
39930;SDS011;26635;-35.248;149.138;2023-09-30T14:33:10;5.03;;;2.58;;
39930;SDS011;26635;-35.248;149.138;2023-09-30T14:36:02;4.25;;;2.47;;
39930;SDS011;26635;-35.248;149.138;2023-09-30T14:38:57;5.80;;;2.72;;
39930;SDS011;26635;-35.248;149.138;2023-09-30T14:42:01;5.13;;;3.05;;
39930;SDS011;26635;-35.248;149.138;2023-09-30T14:44:53;6.00;;;3.22;;
39930;SDS011;26635;-35.248;149.138;2023-09-30T14:47:46;4.72;;;2.60;;
39930;SDS011;26635;-35.248;149.138;2023-09-30T14:50:38;10.38;;;3.20;;
39930;SDS011;26635;-35.248;149.138;2023-09-30T14:53:37;6.05;;;3.00;;
39930;SDS011;26635;-35.248;149.138;2023-09-30T14:56:29;7.18;;;3.25;;
39930;SDS011;26635;-35.248;149.138;2023-09-30T14:59:20;7.72;;;2.95;;
39930;SDS011;26635;-35.248;149.138;2023-09-30T15:02:11;6.15;;;3.33;;
39930;SDS011;26635;-35.248;149.138;2023-09-30T15:05:05;4.90;;;3.03;;
39930;SDS011;26635;-35.248;149.138;2023-09-30T15:07:58;5.50;;;3.20;;
39930;SDS011;26635;-35.248;149.138;2023-09-30T15:10:54;4.70;;;2.75;;
39930;SDS011;26635;-35.248;149.138;2023-09-30T15:13:46;6.78;;;2.78;;
39930;SDS011;26635;-35.248;149.138;2023-09-30T15:16:39;4.53;;;2.80;;
39930;SDS011;26635;-35.248;149.138;2023-09-30T15:19:30;5.07;;;3.00;;
39930;SDS011;26635;-35.248;149.138;2023-09-30T15:22:23;6.07;;;3.45;;
39930;SDS011;26635;-35.248;149.138;2023-09-30T15:25:14;4.60;;;3.05;;
39930;SDS011;26635;-35.248;149.138;2023-09-30T15:28:08;4.63;;;3.35;;
39930;SDS011;26635;-35.248;149.138;2023-09-30T15:30:39;5.78;;;2.63;;
39930;SDS011;26635;-35.248;149.138;2023-09-30T15:33:10;5.45;;;3.22;;
39930;SDS011;26635;-35.248;149.138;2023-09-30T15:35:41;6.65;;;3.38;;
39930;SDS011;26635;-35.248;149.138;2023-09-30T15:38:12;6.57;;;3.28;;